Time,TemperatureF,DewpointF,PressureIn,WindDirection,WindDirectionDegrees,WindSpeedMPH,WindSpeedGustMPH,Humidity,HourlyPrecipIn,Conditions,Clouds,dailyrainin,SoftwareType,DateUTC
2013-10-11 00:05:00,53.2,52.1,29.78,SSW,202,3.2,-999.0,96,-99.99,,,0.00,Acu-Link.com,2013-10-11 07:05:00,
2013-10-11 00:20:00,53.2,52.1,29.78,West,270,2.7,-999.0,96,-99.99,,,0.00,Acu-Link.com,2013-10-11 07:20:00,
2013-10-11 00:37:00,53.2,51.8,29.78,NE,45,2.7,-999.0,95,-99.99,,,0.00,Acu-Link.com,2013-10-11 07:37:00,
2013-10-11 00:52:00,53.2,51.8,29.78,WNW,292,1.7,-999.0,95,-99.99,,,0.00,Acu-Link.com,2013-10-11 07:52:00,
2013-10-11 01:08:00,53.1,51.7,29.78,West,270,2.7,-999.0,95,-99.99,,,0.00,Acu-Link.com,2013-10-11 08:08:00,
2013-10-11 01:23:00,53.1,51.7,29.78,SW,225,3.2,-999.0,95,-99.99,,,0.00,Acu-Link.com,2013-10-11 08:23:00,
2013-10-11 01:39:00,52.9,51.5,29.78,North,0,2.7,-999.0,95,-99.99,,,0.00,Acu-Link.com,2013-10-11 08:39:00,
2013-10-11 01:55:00,52.9,51.5,29.78,NNW,337,2.2,-999.0,95,-99.99,,,0.00,Acu-Link.com,2013-10-11 08:55:00,
2013-10-11 02:10:00,52.7,51.6,29.78,NNE,22,0.0,-999.0,96,-99.99,,,0.00,Acu-Link.com,2013-10-11 09:10:00,
2013-10-11 02:25:00,52.5,51.7,29.78,West,270,0.0,-999.0,97,-99.99,,,0.00,Acu-Link.com,2013-10-11 09:25:00,
2013-10-11 02:40:00,52.7,52.2,29.79,North,0,0.0,-999.0,98,-99.99,,,0.00,Acu-Link.com,2013-10-11 09:40:00,
2013-10-11 02:55:00,52.5,51.7,29.81,ENE,67,0.0,-999.0,97,-99.99,,,0.00,Acu-Link.com,2013-10-11 09:55:00,
2013-10-11 03:10:00,52.3,51.5,29.81,NNE,22,1.1,-999.0,97,-99.99,,,0.00,Acu-Link.com,2013-10-11 10:10:00,
2013-10-11 03:25:00,52.3,51.8,29.81,WSW,247,2.2,-999.0,98,-99.99,,,0.00,Acu-Link.com,2013-10-11 10:25:00,
2013-10-11 03:40:00,52.0,51.7,29.81,WNW,292,3.7,-999.0,99,-99.99,,,0.00,Acu-Link.com,2013-10-11 10:40:00,
2013-10-11 03:55:00,51.8,51.5,29.81,West,270,0.0,-999.0,99,-99.99,,,0.00,Acu-Link.com,2013-10-11 10:55:00,
2013-10-11 04:10:00,51.8,51.5,29.81,West,270,2.2,-999.0,99,-99.99,,,0.00,Acu-Link.com,2013-10-11 11:10:00,
2013-10-11 04:26:00,52.0,51.7,29.81,NW,315,0.0,-999.0,99,-99.99,,,0.00,Acu-Link.com,2013-10-11 11:26:00,
2013-10-11 04:41:00,52.0,51.2,29.81,North,0,0.0,-999.0,97,-99.99,,,0.00,Acu-Link.com,2013-10-11 11:41:00,
2013-10-11 04:56:00,52.0,51.5,29.81,West,270,0.0,-999.0,98,-99.99,,,0.00,Acu-Link.com,2013-10-11 11:56:00,
2013-10-11 05:11:00,52.0,51.5,29.81,NW,315,0.0,-999.0,98,-99.99,,,0.00,Acu-Link.com,2013-10-11 12:11:00,
2013-10-11 05:26:00,52.0,51.5,29.81,West,270,0.0,-999.0,98,-99.99,,,0.00,Acu-Link.com,2013-10-11 12:26:00,
2013-10-11 05:41:00,51.8,51.3,29.83,WSW,247,0.0,-999.0,98,-99.99,,,0.00,Acu-Link.com,2013-10-11 12:41:00,
2013-10-11 05:56:00,51.6,50.8,29.83,East,90,0.0,-999.0,97,-99.99,,,0.01,Acu-Link.com,2013-10-11 12:56:00,
2013-10-11 06:11:00,51.3,50.8,29.83,East,90,0.0,-999.0,98,-99.99,,,0.01,Acu-Link.com,2013-10-11 13:11:00,
2013-10-11 06:26:00,51.6,51.1,29.83,NNW,337,0.0,-999.0,98,-99.99,,,0.02,Acu-Link.com,2013-10-11 13:26:00,
2013-10-11 06:42:00,51.4,50.6,29.84,NW,315,0.0,-999.0,97,-99.99,,,0.02,Acu-Link.com,2013-10-11 13:42:00,
2013-10-11 06:57:00,51.3,51.0,29.83,WSW,247,0.0,-999.0,99,-99.99,,,0.04,Acu-Link.com,2013-10-11 13:57:00,
2013-10-11 07:12:00,50.9,50.6,29.83,West,270,0.0,-999.0,99,-99.99,,,0.05,Acu-Link.com,2013-10-11 14:12:00,
2013-10-11 07:27:00,50.9,50.4,29.83,West,270,3.2,-999.0,98,-99.99,,,0.05,Acu-Link.com,2013-10-11 14:27:00,
2013-10-11 07:42:00,50.7,50.2,29.83,West,270,0.0,-999.0,98,-99.99,,,0.05,Acu-Link.com,2013-10-11 14:42:00,
2013-10-11 07:57:00,50.9,50.4,29.82,ESE,112,0.0,-999.0,98,-99.99,,,0.06,Acu-Link.com,2013-10-11 14:57:00,
2013-10-11 08:12:00,50.9,50.4,29.84,West,270,1.1,-999.0,98,-99.99,,,0.06,Acu-Link.com,2013-10-11 15:12:00,
2013-10-11 08:27:00,51.1,50.6,29.84,WNW,292,2.7,-999.0,98,-99.99,,,0.06,Acu-Link.com,2013-10-11 15:27:00,
2013-10-11 08:42:00,51.3,51.0,29.84,NNW,337,2.2,-999.0,99,-99.99,,,0.06,Acu-Link.com,2013-10-11 15:42:00,
2013-10-11 08:57:00,51.1,50.8,29.84,West,270,3.7,-999.0,99,-99.99,,,0.08,Acu-Link.com,2013-10-11 15:57:00,
2013-10-11 09:13:00,51.3,51.0,29.84,WNW,292,2.2,-999.0,99,-99.99,,,0.08,Acu-Link.com,2013-10-11 16:13:00,
2013-10-11 09:28:00,51.4,50.9,29.84,SW,225,2.7,-999.0,98,-99.99,,,0.09,Acu-Link.com,2013-10-11 16:28:00,
2013-10-11 09:43:00,51.8,50.7,29.84,WNW,292,0.0,-999.0,96,-99.99,,,0.09,Acu-Link.com,2013-10-11 16:43:00,
2013-10-11 09:58:00,52.5,51.1,29.85,NE,45,0.0,-999.0,95,-99.99,,,0.09,Acu-Link.com,2013-10-11 16:58:00,
2013-10-11 10:13:00,52.9,50.6,29.86,North,0,0.0,-999.0,92,-99.99,,,0.09,Acu-Link.com,2013-10-11 17:13:00,
2013-10-11 10:28:00,53.2,50.9,29.85,South,180,0.0,-999.0,92,-99.99,,,0.09,Acu-Link.com,2013-10-11 17:28:00,
2013-10-11 10:43:00,53.8,50.9,29.85,NNE,22,0.0,-999.0,90,-99.99,,,0.09,Acu-Link.com,2013-10-11 17:43:00,
2013-10-11 10:58:00,53.8,50.9,29.85,WSW,247,0.0,-999.0,90,-99.99,,,0.09,Acu-Link.com,2013-10-11 17:58:00,
2013-10-11 11:13:00,52.2,50.2,29.85,SW,225,4.7,-999.0,93,-99.99,,,0.09,Acu-Link.com,2013-10-11 18:13:00,
2013-10-11 11:29:00,52.2,51.4,29.85,NE,45,0.0,-999.0,97,-99.99,,,0.10,Acu-Link.com,2013-10-11 18:29:00,
2013-10-11 11:44:00,52.2,51.4,29.86,SE,135,0.0,-999.0,97,-99.99,,,0.11,Acu-Link.com,2013-10-11 18:44:00,
2013-10-11 11:59:00,52.0,50.6,29.86,WNW,292,0.0,-999.0,95,-99.99,,,0.12,Acu-Link.com,2013-10-11 18:59:00,
2013-10-11 12:14:00,53.4,51.4,29.86,SSW,202,2.7,-999.0,93,-99.99,,,0.12,Acu-Link.com,2013-10-11 19:14:00,
2013-10-11 12:29:00,54.1,50.6,29.85,SSE,157,0.0,-999.0,88,-99.99,,,0.12,Acu-Link.com,2013-10-11 19:29:00,
2013-10-11 12:44:00,54.9,51.1,29.84,West,270,1.7,-999.0,87,-99.99,,,0.12,Acu-Link.com,2013-10-11 19:44:00,
2013-10-11 12:59:00,53.4,50.5,29.84,WSW,247,0.0,-999.0,90,-99.99,,,0.12,Acu-Link.com,2013-10-11 19:59:00,
2013-10-11 13:14:00,54.3,51.1,29.85,SW,225,0.0,-999.0,89,-99.99,,,0.12,Acu-Link.com,2013-10-11 20:14:00,
2013-10-11 13:29:00,54.7,50.9,29.85,South,180,3.2,-999.0,87,-99.99,,,0.12,Acu-Link.com,2013-10-11 20:29:00,
2013-10-11 13:45:00,54.9,50.8,29.84,South,180,2.7,-999.0,86,-99.99,,,0.12,Acu-Link.com,2013-10-11 20:45:00,
2013-10-11 14:00:00,55.2,50.5,29.84,SSW,202,3.7,-999.0,84,-99.99,,,0.12,Acu-Link.com,2013-10-11 21:00:00,
2013-10-11 14:15:00,54.9,50.2,29.84,SSW,202,4.2,-999.0,84,-99.99,,,0.12,Acu-Link.com,2013-10-11 21:15:00,
2013-10-11 14:30:00,55.9,50.5,29.84,SW,225,1.1,-999.0,82,-99.99,,,0.12,Acu-Link.com,2013-10-11 21:30:00,
2013-10-11 14:45:00,55.9,50.2,29.83,SSW,202,0.0,-999.0,81,-99.99,,,0.12,Acu-Link.com,2013-10-11 21:45:00,
2013-10-11 15:00:00,56.1,50.7,29.83,SSW,202,0.0,-999.0,82,-99.99,,,0.12,Acu-Link.com,2013-10-11 22:00:00,
2013-10-11 15:16:00,56.7,50.6,29.84,SSW,202,0.0,-999.0,80,-99.99,,,0.12,Acu-Link.com,2013-10-11 22:16:00,
2013-10-11 15:31:00,56.8,50.7,29.83,WSW,247,2.7,-999.0,80,-99.99,,,0.12,Acu-Link.com,2013-10-11 22:31:00,
2013-10-11 15:46:00,56.7,50.3,29.83,SSW,202,0.0,-999.0,79,-99.99,,,0.12,Acu-Link.com,2013-10-11 22:46:00,
2013-10-11 16:01:00,56.3,50.5,29.83,West,270,0.0,-999.0,81,-99.99,,,0.12,Acu-Link.com,2013-10-11 23:01:00,
2013-10-11 16:16:00,56.7,50.3,29.83,West,270,2.2,-999.0,79,-99.99,,,0.12,Acu-Link.com,2013-10-11 23:16:00,
2013-10-11 16:31:00,56.5,50.4,29.83,NNW,337,0.0,-999.0,80,-99.99,,,0.12,Acu-Link.com,2013-10-11 23:31:00,
2013-10-11 16:46:00,57.2,50.7,29.83,East,90,0.0,-999.0,79,-99.99,,,0.12,Acu-Link.com,2013-10-11 23:46:00,
2013-10-11 17:01:00,57.7,50.5,29.82,NNE,22,0.0,-999.0,77,-99.99,,,0.12,Acu-Link.com,2013-10-12 00:01:00,
2013-10-11 17:16:00,57.7,52.2,29.81,ESE,112,3.2,-999.0,82,-99.99,,,0.12,Acu-Link.com,2013-10-12 00:16:00,
2013-10-11 17:31:00,56.7,51.6,29.81,SE,135,3.7,-999.0,83,-99.99,,,0.12,Acu-Link.com,2013-10-12 00:31:00,
2013-10-11 17:47:00,56.5,52.4,29.81,NNE,22,3.2,-999.0,86,-99.99,,,0.12,Acu-Link.com,2013-10-12 00:47:00,
2013-10-11 18:02:00,55.9,52.1,29.80,NE,45,0.0,-999.0,87,-99.99,,,0.12,Acu-Link.com,2013-10-12 01:02:00,
2013-10-11 18:17:00,55.4,51.6,29.80,ESE,112,0.0,-999.0,87,-99.99,,,0.12,Acu-Link.com,2013-10-12 01:17:00,
2013-10-11 18:32:00,54.9,51.4,29.80,ENE,67,1.7,-999.0,88,-99.99,,,0.12,Acu-Link.com,2013-10-12 01:32:00,
2013-10-11 18:47:00,54.3,51.7,29.79,East,90,0.0,-999.0,91,-99.99,,,0.12,Acu-Link.com,2013-10-12 01:47:00,
2013-10-11 19:02:00,53.8,51.8,29.80,East,90,0.0,-999.0,93,-99.99,,,0.12,Acu-Link.com,2013-10-12 02:02:00,
2013-10-11 19:17:00,53.6,51.6,29.80,NE,45,0.0,-999.0,93,-99.99,,,0.12,Acu-Link.com,2013-10-12 02:17:00,
2013-10-11 19:32:00,53.6,51.6,29.80,ESE,112,0.0,-999.0,93,-99.99,,,0.12,Acu-Link.com,2013-10-12 02:32:00,
2013-10-11 19:47:00,52.7,51.3,29.79,ENE,67,0.0,-999.0,95,-99.99,,,0.12,Acu-Link.com,2013-10-12 02:47:00,
2013-10-11 20:03:00,53.1,52.0,29.79,NNE,22,0.0,-999.0,96,-99.99,,,0.12,Acu-Link.com,2013-10-12 03:03:00,
2013-10-11 20:18:00,52.2,51.9,29.79,ENE,67,0.0,-999.0,99,-99.99,,,0.12,Acu-Link.com,2013-10-12 03:18:00,
2013-10-11 20:33:00,52.0,51.7,29.78,ESE,112,0.0,-999.0,99,-99.99,,,0.12,Acu-Link.com,2013-10-12 03:33:00,
2013-10-11 20:48:00,51.8,51.3,29.79,East,90,0.0,-999.0,98,-99.99,,,0.12,Acu-Link.com,2013-10-12 03:48:00,
2013-10-11 21:03:00,52.0,51.7,29.79,SW,225,0.0,-999.0,99,-99.99,,,0.12,Acu-Link.com,2013-10-12 04:03:00,
2013-10-11 21:18:00,51.8,51.5,29.79,NE,45,0.0,-999.0,99,-99.99,,,0.12,Acu-Link.com,2013-10-12 04:18:00,
2013-10-11 21:33:00,51.8,51.5,29.79,East,90,0.0,-999.0,99,-99.99,,,0.12,Acu-Link.com,2013-10-12 04:33:00,
2013-10-11 21:48:00,51.8,51.5,29.79,SSW,202,0.0,-999.0,99,-99.99,,,0.12,Acu-Link.com,2013-10-12 04:48:00,
2013-10-11 22:03:00,51.8,51.5,29.79,ESE,112,0.0,-999.0,99,-99.99,,,0.12,Acu-Link.com,2013-10-12 05:03:00,
2013-10-11 22:20:00,51.8,51.5,29.79,ESE,112,0.0,-999.0,99,-99.99,,,0.12,Acu-Link.com,2013-10-12 05:20:00,
2013-10-11 22:35:00,52.0,51.7,29.78,East,90,1.1,-999.0,99,-99.99,,,0.12,Acu-Link.com,2013-10-12 05:35:00,
2013-10-11 22:50:00,52.2,51.9,29.79,ESE,112,2.2,-999.0,99,-99.99,,,0.12,Acu-Link.com,2013-10-12 05:50:00,
2013-10-11 23:05:00,52.2,51.9,29.79,East,90,3.2,-999.0,99,-99.99,,,0.12,Acu-Link.com,2013-10-12 06:05:00,
2013-10-11 23:21:00,52.3,52.0,29.79,SE,135,3.2,-999.0,99,-99.99,,,0.12,Acu-Link.com,2013-10-12 06:21:00,
2013-10-11 23:36:00,52.3,52.0,29.79,East,90,0.0,-999.0,99,-99.99,,,0.12,Acu-Link.com,2013-10-12 06:36:00,
2013-10-11 23:51:00,52.3,52.0,29.80,ESE,112,1.7,-999.0,99,-99.99,,,0.12,Acu-Link.com,2013-10-12 06:51:00,